sensor_id;sensor_type;location;lat;lon;timestamp;pressure;altitude;pressure_sealevel;temperature;humidity
12073;BME280;6098;49.004;8.372;2023-05-03T00:13:37;101293.51;;;11.70;66.59
12073;BME280;6098;49.004;8.372;2023-05-03T00:28:28;101283.83;;;11.36;67.77
12073;BME280;6098;49.004;8.372;2023-05-03T00:43:20;101293.38;;;11.26;68.49
12073;BME280;6098;49.004;8.372;2023-05-03T00:58:11;101271.61;;;11.14;69.45
12073;BME280;6098;49.004;8.372;2023-05-03T01:28:19;101256.80;;;10.54;72.33
12073;BME280;6098;49.004;8.372;2023-05-03T01:43:10;101246.47;;;10.44;73.22
12073;BME280;6098;49.004;8.372;2023-05-03T01:58:01;101249.92;;;10.29;73.89
12073;BME280;6098;49.004;8.372;2023-05-03T02:12:52;101244.60;;;10.09;74.79
12073;BME280;6098;49.004;8.372;2023-05-03T02:27:55;101247.41;;;9.83;75.80
12073;BME280;6098;49.004;8.372;2023-05-03T02:42:42;101255.47;;;9.77;76.28
12073;BME280;6098;49.004;8.372;2023-05-03T02:57:34;101252.34;;;9.58;77.04
12073;BME280;6098;49.004;8.372;2023-05-03T03:12:25;101257.66;;;9.37;77.57
12073;BME280;6098;49.004;8.372;2023-05-03T03:27:15;101266.44;;;9.39;77.00
12073;BME280;6098;49.004;8.372;2023-05-03T03:42:06;101257.99;;;9.20;77.16
12073;BME280;6098;49.004;8.372;2023-05-03T03:56:59;101263.61;;;9.02;77.07
12073;BME280;6098;49.004;8.372;2023-05-03T04:11:50;101263.95;;;8.83;78.23
12073;BME280;6098;49.004;8.372;2023-05-03T04:26:41;101270.84;;;8.68;79.08
12073;BME280;6098;49.004;8.372;2023-05-03T04:41:33;101273.15;;;8.61;78.89
12073;BME280;6098;49.004;8.372;2023-05-03T04:56:24;101286.11;;;8.50;80.90
12073;BME280;6098;49.004;8.372;2023-05-03T05:11:14;101291.33;;;8.53;81.05
12073;BME280;6098;49.004;8.372;2023-05-03T05:26:06;101293.88;;;8.59;81.47
12073;BME280;6098;49.004;8.372;2023-05-03T05:40:58;101289.29;;;8.71;80.96
12073;BME280;6098;49.004;8.372;2023-05-03T05:55:50;101292.05;;;9.15;79.64
12073;BME280;6098;49.004;8.372;2023-05-03T06:10:43;101292.75;;;9.45;78.23
12073;BME280;6098;49.004;8.372;2023-05-03T06:25:35;101289.64;;;9.90;77.07
12073;BME280;6098;49.004;8.372;2023-05-03T06:40:29;101267.98;;;10.31;75.98
12073;BME280;6098;49.004;8.372;2023-05-03T06:55:23;101263.98;;;11.01;74.17
12073;BME280;6098;49.004;8.372;2023-05-03T07:10:16;101259.73;;;11.43;72.10
12073;BME280;6098;49.004;8.372;2023-05-03T07:25:08;101260.37;;;11.82;71.49
12073;BME280;6098;49.004;8.372;2023-05-03T07:40:04;101248.82;;;12.26;70.19
12073;BME280;6098;49.004;8.372;2023-05-03T07:54:56;101226.13;;;12.69;69.64
12073;BME280;6098;49.004;8.372;2023-05-03T08:09:48;101238.27;;;12.89;68.97
12073;BME280;6098;49.004;8.372;2023-05-03T08:24:41;101243.75;;;13.59;67.58
12073;BME280;6098;49.004;8.372;2023-05-03T08:39:34;101248.38;;;14.00;65.99
12073;BME280;6098;49.004;8.372;2023-05-03T08:54:27;101233.91;;;14.29;65.08
12073;BME280;6098;49.004;8.372;2023-05-03T09:09:26;101224.28;;;14.68;64.05
12073;BME280;6098;49.004;8.372;2023-05-03T09:24:19;101233.39;;;15.04;63.05
12073;BME280;6098;49.004;8.372;2023-05-03T09:39:16;101225.49;;;15.42;62.09
12073;BME280;6098;49.004;8.372;2023-05-03T09:54:09;101222.76;;;15.91;60.13
12073;BME280;6098;49.004;8.372;2023-05-03T10:09:20;101211.96;;;16.29;59.00
12073;BME280;6098;49.004;8.372;2023-05-03T10:24:18;101195.31;;;16.68;58.29
12073;BME280;6098;49.004;8.372;2023-05-03T10:39:15;101170.51;;;17.31;56.62
12073;BME280;6098;49.004;8.372;2023-05-03T10:54:11;101156.27;;;17.71;54.81
12073;BME280;6098;49.004;8.372;2023-05-03T11:09:04;101147.48;;;17.84;54.32
12073;BME280;6098;49.004;8.372;2023-05-03T11:23:56;101143.50;;;18.29;52.70
12073;BME280;6098;49.004;8.372;2023-05-03T11:38:47;101125.70;;;18.73;50.77
12073;BME280;6098;49.004;8.372;2023-05-03T11:53:41;101113.95;;;19.39;48.82
12073;BME280;6098;49.004;8.372;2023-05-03T12:08:34;101103.69;;;19.66;47.14
12073;BME280;6098;49.004;8.372;2023-05-03T12:23:26;101100.55;;;19.86;45.97
12073;BME280;6098;49.004;8.372;2023-05-03T12:38:19;101076.44;;;20.18;46.02
12073;BME280;6098;49.004;8.372;2023-05-03T12:53:12;101055.80;;;20.63;44.76
12073;BME280;6098;49.004;8.372;2023-05-03T13:08:05;101037.23;;;20.72;43.12
12073;BME280;6098;49.004;8.372;2023-05-03T13:22:58;101020.83;;;21.31;43.17
12073;BME280;6098;49.004;8.372;2023-05-03T13:37:52;101015.09;;;21.17;41.53
12073;BME280;6098;49.004;8.372;2023-05-03T13:52:44;100995.00;;;21.46;41.34
12073;BME280;6098;49.004;8.372;2023-05-03T14:07:39;100979.25;;;21.99;40.25
12073;BME280;6098;49.004;8.372;2023-05-03T14:22:36;100952.36;;;22.26;38.82
12073;BME280;6098;49.004;8.372;2023-05-03T14:37:34;100941.64;;;22.87;37.78
12073;BME280;6098;49.004;8.372;2023-05-03T14:52:32;100952.64;;;23.28;36.35
12073;BME280;6098;49.004;8.372;2023-05-03T15:07:27;100950.80;;;23.67;35.00
12073;BME280;6098;49.004;8.372;2023-05-03T15:22:21;100941.69;;;24.56;32.04
12073;BME280;6098;49.004;8.372;2023-05-03T15:37:12;100927.75;;;24.65;32.05
12073;BME280;6098;49.004;8.372;2023-05-03T15:52:07;100914.34;;;24.94;31.93
12073;BME280;6098;49.004;8.372;2023-05-03T16:06:56;100906.74;;;23.49;35.40
12073;BME280;6098;49.004;8.372;2023-05-03T16:21:40;100887.07;;;22.04;37.64
12073;BME280;6098;49.004;8.372;2023-05-03T16:36:29;100884.47;;;21.33;39.16
12073;BME280;6098;49.004;8.372;2023-05-03T16:51:21;100874.33;;;20.88;39.84
12073;BME280;6098;49.004;8.372;2023-05-03T17:06:13;100868.04;;;20.58;40.06
12073;BME280;6098;49.004;8.372;2023-05-03T17:21:04;100866.45;;;20.43;39.90
12073;BME280;6098;49.004;8.372;2023-05-03T17:35:57;100873.65;;;20.11;39.75
12073;BME280;6098;49.004;8.372;2023-05-03T17:50:55;100876.05;;;19.77;40.52
12073;BME280;6098;49.004;8.372;2023-05-03T18:05:39;100883.57;;;19.53;41.06
12073;BME280;6098;49.004;8.372;2023-05-03T18:20:30;100887.27;;;19.24;41.08
12073;BME280;6098;49.004;8.372;2023-05-03T18:35:23;100891.52;;;18.94;41.79
12073;BME280;6098;49.004;8.372;2023-05-03T18:50:16;100895.53;;;18.67;42.19
12073;BME280;6098;49.004;8.372;2023-05-03T19:05:08;100894.98;;;18.40;43.11
12073;BME280;6098;49.004;8.372;2023-05-03T19:20:01;100908.98;;;18.02;44.36
12073;BME280;6098;49.004;8.372;2023-05-03T19:34:53;100919.45;;;17.77;45.36
12073;BME280;6098;49.004;8.372;2023-05-03T19:49:44;100917.98;;;17.34;45.90
12073;BME280;6098;49.004;8.372;2023-05-03T20:04:34;100928.41;;;16.93;46.94
12073;BME280;6098;49.004;8.372;2023-05-03T20:19:28;100932.32;;;16.63;47.48
12073;BME280;6098;49.004;8.372;2023-05-03T20:34:17;100930.88;;;16.49;47.90
12073;BME280;6098;49.004;8.372;2023-05-03T20:49:10;100921.41;;;16.25;48.68
12073;BME280;6098;49.004;8.372;2023-05-03T21:04:02;100929.26;;;16.12;49.15
12073;BME280;6098;49.004;8.372;2023-05-03T21:18:55;100925.44;;;15.92;49.51
12073;BME280;6098;49.004;8.372;2023-05-03T21:33:46;100912.70;;;15.71;50.27
12073;BME280;6098;49.004;8.372;2023-05-03T21:48:38;100904.81;;;15.61;51.02
12073;BME280;6098;49.004;8.372;2023-05-03T22:03:31;100891.27;;;15.47;51.42
12073;BME280;6098;49.004;8.372;2023-05-03T22:18:21;100883.36;;;15.35;52.11
12073;BME280;6098;49.004;8.372;2023-05-03T22:33:12;100875.73;;;15.19;52.89
12073;BME280;6098;49.004;8.372;2023-05-03T22:48:03;100870.28;;;15.03;53.36
12073;BME280;6098;49.004;8.372;2023-05-03T23:02:55;100873.85;;;14.85;54.30
12073;BME280;6098;49.004;8.372;2023-05-03T23:17:46;100863.45;;;14.71;55.25
12073;BME280;6098;49.004;8.372;2023-05-03T23:32:40;100857.55;;;14.54;55.64
12073;BME280;6098;49.004;8.372;2023-05-03T23:47:33;100838.23;;;14.31;56.70
